sensor_id;sensor_type;location;lat;lon;timestamp;P1;durP1;ratioP1;P2;durP2;ratioP2
42972;SDS011;28610;51.214;6.962;2022-07-03T00:01:49;9.60;;;2.83;;
42972;SDS011;28610;51.214;6.962;2022-07-03T00:04:35;4.75;;;2.63;;
42972;SDS011;28610;51.214;6.962;2022-07-03T00:07:22;5.57;;;2.47;;
42972;SDS011;28610;51.214;6.962;2022-07-03T00:10:07;8.20;;;2.50;;
42972;SDS011;28610;51.214;6.962;2022-07-03T00:12:53;6.35;;;2.20;;
42972;SDS011;28610;51.214;6.962;2022-07-03T00:15:38;5.05;;;2.40;;
42972;SDS011;28610;51.214;6.962;2022-07-03T00:18:24;5.97;;;2.40;;
42972;SDS011;28610;51.214;6.962;2022-07-03T00:21:10;5.53;;;2.25;;
42972;SDS011;28610;51.214;6.962;2022-07-03T00:23:59;6.68;;;2.40;;
42972;SDS011;28610;51.214;6.962;2022-07-03T00:26:49;7.03;;;2.60;;
42972;SDS011;28610;51.214;6.962;2022-07-03T00:29:36;5.47;;;2.75;;
42972;SDS011;28610;51.214;6.962;2022-07-03T00:32:23;6.78;;;2.55;;
42972;SDS011;28610;51.214;6.962;2022-07-03T00:35:09;6.32;;;2.25;;
42972;SDS011;28610;51.214;6.962;2022-07-03T00:37:55;5.85;;;2.40;;
42972;SDS011;28610;51.214;6.962;2022-07-03T00:40:42;6.32;;;2.60;;
42972;SDS011;28610;51.214;6.962;2022-07-03T00:43:28;10.13;;;2.25;;
42972;SDS011;28610;51.214;6.962;2022-07-03T00:46:13;5.20;;;2.30;;
42972;SDS011;28610;51.214;6.962;2022-07-03T00:48:59;5.35;;;2.13;;
42972;SDS011;28610;51.214;6.962;2022-07-03T00:51:46;7.68;;;2.30;;
42972;SDS011;28610;51.214;6.962;2022-07-03T00:54:36;6.00;;;2.45;;
42972;SDS011;28610;51.214;6.962;2022-07-03T00:57:28;7.55;;;2.40;;
42972;SDS011;28610;51.214;6.962;2022-07-03T01:00:15;5.78;;;2.70;;
42972;SDS011;28610;51.214;6.962;2022-07-03T01:03:02;6.95;;;2.33;;
42972;SDS011;28610;51.214;6.962;2022-07-03T01:05:51;7.05;;;2.20;;
42972;SDS011;28610;51.214;6.962;2022-07-03T01:08:40;4.93;;;2.38;;
42972;SDS011;28610;51.214;6.962;2022-07-03T01:11:31;7.95;;;2.75;;
42972;SDS011;28610;51.214;6.962;2022-07-03T01:14:24;5.30;;;2.40;;
42972;SDS011;28610;51.214;6.962;2022-07-03T01:17:18;4.03;;;2.17;;
42972;SDS011;28610;51.214;6.962;2022-07-03T01:20:07;5.28;;;2.70;;
42972;SDS011;28610;51.214;6.962;2022-07-03T01:22:54;3.75;;;2.20;;
42972;SDS011;28610;51.214;6.962;2022-07-03T01:25:44;7.32;;;2.53;;
42972;SDS011;28610;51.214;6.962;2022-07-03T01:28:33;4.78;;;2.33;;
42972;SDS011;28610;51.214;6.962;2022-07-03T01:31:22;6.60;;;2.70;;
42972;SDS011;28610;51.214;6.962;2022-07-03T01:34:09;6.03;;;2.50;;
42972;SDS011;28610;51.214;6.962;2022-07-03T01:36:58;7.05;;;2.80;;
42972;SDS011;28610;51.214;6.962;2022-07-03T01:39:47;6.97;;;2.55;;
42972;SDS011;28610;51.214;6.962;2022-07-03T01:42:38;13.70;;;2.63;;
42972;SDS011;28610;51.214;6.962;2022-07-03T01:45:26;7.03;;;2.47;;
42972;SDS011;28610;51.214;6.962;2022-07-03T01:48:13;8.10;;;2.50;;
42972;SDS011;28610;51.214;6.962;2022-07-03T01:50:59;7.70;;;2.70;;
42972;SDS011;28610;51.214;6.962;2022-07-03T01:53:46;6.30;;;2.70;;
42972;SDS011;28610;51.214;6.962;2022-07-03T01:56:33;5.15;;;2.40;;
42972;SDS011;28610;51.214;6.962;2022-07-03T01:59:21;5.88;;;2.60;;
42972;SDS011;28610;51.214;6.962;2022-07-03T02:02:09;6.68;;;2.70;;
42972;SDS011;28610;51.214;6.962;2022-07-03T02:05:00;5.93;;;2.60;;
42972;SDS011;28610;51.214;6.962;2022-07-03T02:07:53;6.43;;;2.65;;
42972;SDS011;28610;51.214;6.962;2022-07-03T02:11:00;5.53;;;2.63;;
42972;SDS011;28610;51.214;6.962;2022-07-03T02:13:59;5.55;;;2.50;;
42972;SDS011;28610;51.214;6.962;2022-07-03T02:17:00;8.00;;;2.83;;
42972;SDS011;28610;51.214;6.962;2022-07-03T02:19:53;9.32;;;2.75;;
42972;SDS011;28610;51.214;6.962;2022-07-03T02:22:40;6.32;;;2.47;;
42972;SDS011;28610;51.214;6.962;2022-07-03T02:25:30;8.65;;;3.00;;
42972;SDS011;28610;51.214;6.962;2022-07-03T02:28:21;8.70;;;2.90;;
42972;SDS011;28610;51.214;6.962;2022-07-03T02:31:13;10.73;;;3.20;;
42972;SDS011;28610;51.214;6.962;2022-07-03T02:34:02;5.40;;;2.70;;
42972;SDS011;28610;51.214;6.962;2022-07-03T02:36:52;8.60;;;3.30;;
42972;SDS011;28610;51.214;6.962;2022-07-03T02:39:43;8.35;;;3.00;;
42972;SDS011;28610;51.214;6.962;2022-07-03T02:42:32;8.60;;;2.88;;
42972;SDS011;28610;51.214;6.962;2022-07-03T02:45:24;8.48;;;2.65;;
42972;SDS011;28610;51.214;6.962;2022-07-03T02:48:16;6.53;;;2.65;;
42972;SDS011;28610;51.214;6.962;2022-07-03T02:51:13;6.05;;;2.92;;
42972;SDS011;28610;51.214;6.962;2022-07-03T02:54:09;5.13;;;2.88;;
42972;SDS011;28610;51.214;6.962;2022-07-03T02:56:59;8.43;;;2.70;;
42972;SDS011;28610;51.214;6.962;2022-07-03T02:59:53;5.45;;;2.70;;
42972;SDS011;28610;51.214;6.962;2022-07-03T03:02:53;6.85;;;2.83;;
42972;SDS011;28610;51.214;6.962;2022-07-03T03:05:40;8.45;;;2.80;;
42972;SDS011;28610;51.214;6.962;2022-07-03T03:08:34;6.00;;;2.90;;
42972;SDS011;28610;51.214;6.962;2022-07-03T03:11:23;8.15;;;2.72;;
42972;SDS011;28610;51.214;6.962;2022-07-03T03:14:13;4.75;;;2.78;;
42972;SDS011;28610;51.214;6.962;2022-07-03T03:16:59;6.93;;;2.97;;
42972;SDS011;28610;51.214;6.962;2022-07-03T03:19:50;6.88;;;2.90;;
42972;SDS011;28610;51.214;6.962;2022-07-03T03:22:40;8.25;;;2.80;;
42972;SDS011;28610;51.214;6.962;2022-07-03T03:25:43;9.00;;;3.05;;
42972;SDS011;28610;51.214;6.962;2022-07-03T03:28:28;6.80;;;3.10;;
42972;SDS011;28610;51.214;6.962;2022-07-03T03:31:14;7.03;;;2.83;;
42972;SDS011;28610;51.214;6.962;2022-07-03T03:34:02;7.38;;;2.85;;
42972;SDS011;28610;51.214;6.962;2022-07-03T03:36:48;5.28;;;2.60;;
42972;SDS011;28610;51.214;6.962;2022-07-03T03:39:34;5.57;;;2.90;;
42972;SDS011;28610;51.214;6.962;2022-07-03T03:42:20;5.93;;;2.90;;
42972;SDS011;28610;51.214;6.962;2022-07-03T03:45:06;10.25;;;2.83;;
42972;SDS011;28610;51.214;6.962;2022-07-03T03:47:53;10.10;;;3.30;;
42972;SDS011;28610;51.214;6.962;2022-07-03T03:50:38;4.68;;;3.10;;
42972;SDS011;28610;51.214;6.962;2022-07-03T03:53:26;7.35;;;2.80;;
42972;SDS011;28610;51.214;6.962;2022-07-03T03:56:13;6.47;;;3.00;;
42972;SDS011;28610;51.214;6.962;2022-07-03T03:58:59;5.90;;;2.90;;
42972;SDS011;28610;51.214;6.962;2022-07-03T04:01:45;5.68;;;2.67;;
42972;SDS011;28610;51.214;6.962;2022-07-03T04:04:31;5.78;;;2.72;;
42972;SDS011;28610;51.214;6.962;2022-07-03T04:07:16;6.57;;;2.88;;
42972;SDS011;28610;51.214;6.962;2022-07-03T04:10:02;5.93;;;2.78;;
42972;SDS011;28610;51.214;6.962;2022-07-03T04:12:47;6.63;;;2.95;;
42972;SDS011;28610;51.214;6.962;2022-07-03T04:15:34;5.38;;;2.90;;
42972;SDS011;28610;51.214;6.962;2022-07-03T04:18:20;5.22;;;3.00;;
42972;SDS011;28610;51.214;6.962;2022-07-03T04:21:05;7.80;;;3.20;;
42972;SDS011;28610;51.214;6.962;2022-07-03T04:23:50;5.22;;;2.90;;
42972;SDS011;28610;51.214;6.962;2022-07-03T04:26:36;8.13;;;3.10;;
42972;SDS011;28610;51.214;6.962;2022-07-03T04:29:21;7.93;;;2.95;;
42972;SDS011;28610;51.214;6.962;2022-07-03T04:32:08;5.50;;;3.28;;
42972;SDS011;28610;51.214;6.962;2022-07-03T04:34:54;7.13;;;3.13;;
42972;SDS011;28610;51.214;6.962;2022-07-03T04:37:40;7.30;;;3.45;;
42972;SDS011;28610;51.214;6.962;2022-07-03T04:40:26;7.80;;;3.47;;
42972;SDS011;28610;51.214;6.962;2022-07-03T04:43:11;6.60;;;3.30;;
42972;SDS011;28610;51.214;6.962;2022-07-03T04:45:57;5.82;;;3.10;;
42972;SDS011;28610;51.214;6.962;2022-07-03T04:48:44;7.25;;;3.15;;
42972;SDS011;28610;51.214;6.962;2022-07-03T04:51:29;6.38;;;3.20;;
42972;SDS011;28610;51.214;6.962;2022-07-03T04:54:14;10.25;;;3.05;;
42972;SDS011;28610;51.214;6.962;2022-07-03T04:57:00;5.25;;;2.88;;
42972;SDS011;28610;51.214;6.962;2022-07-03T04:59:45;6.18;;;2.88;;
42972;SDS011;28610;51.214;6.962;2022-07-03T05:02:31;6.65;;;3.20;;
42972;SDS011;28610;51.214;6.962;2022-07-03T05:05:18;7.22;;;2.95;;
42972;SDS011;28610;51.214;6.962;2022-07-03T05:08:05;7.80;;;2.90;;
42972;SDS011;28610;51.214;6.962;2022-07-03T05:10:50;7.13;;;2.85;;
42972;SDS011;28610;51.214;6.962;2022-07-03T05:13:36;9.55;;;2.90;;
42972;SDS011;28610;51.214;6.962;2022-07-03T05:16:21;4.30;;;2.60;;
42972;SDS011;28610;51.214;6.962;2022-07-03T05:19:07;8.55;;;2.80;;
42972;SDS011;28610;51.214;6.962;2022-07-03T05:21:54;5.50;;;2.90;;
42972;SDS011;28610;51.214;6.962;2022-07-03T05:24:39;7.00;;;2.85;;
42972;SDS011;28610;51.214;6.962;2022-07-03T05:27:25;5.50;;;2.70;;
42972;SDS011;28610;51.214;6.962;2022-07-03T05:30:11;6.25;;;2.50;;
42972;SDS011;28610;51.214;6.962;2022-07-03T05:32:57;4.47;;;2.63;;
42972;SDS011;28610;51.214;6.962;2022-07-03T05:35:42;5.13;;;2.97;;
42972;SDS011;28610;51.214;6.962;2022-07-03T05:38:29;5.88;;;2.67;;
42972;SDS011;28610;51.214;6.962;2022-07-03T05:41:33;9.05;;;3.35;;
42972;SDS011;28610;51.214;6.962;2022-07-03T05:44:19;6.40;;;2.65;;
42972;SDS011;28610;51.214;6.962;2022-07-03T05:47:04;7.20;;;3.00;;
42972;SDS011;28610;51.214;6.962;2022-07-03T05:49:50;9.05;;;3.00;;
42972;SDS011;28610;51.214;6.962;2022-07-03T05:52:35;6.03;;;2.78;;
42972;SDS011;28610;51.214;6.962;2022-07-03T05:55:22;11.18;;;3.13;;
42972;SDS011;28610;51.214;6.962;2022-07-03T05:58:08;7.35;;;2.95;;
42972;SDS011;28610;51.214;6.962;2022-07-03T06:00:53;8.10;;;2.88;;
42972;SDS011;28610;51.214;6.962;2022-07-03T06:03:39;7.28;;;2.70;;
42972;SDS011;28610;51.214;6.962;2022-07-03T06:06:24;7.30;;;3.05;;
42972;SDS011;28610;51.214;6.962;2022-07-03T06:09:10;6.28;;;3.00;;
42972;SDS011;28610;51.214;6.962;2022-07-03T06:11:56;8.90;;;2.75;;
42972;SDS011;28610;51.214;6.962;2022-07-03T06:14:42;5.20;;;2.70;;
42972;SDS011;28610;51.214;6.962;2022-07-03T06:17:28;8.27;;;2.92;;
42972;SDS011;28610;51.214;6.962;2022-07-03T06:20:13;10.70;;;2.88;;
42972;SDS011;28610;51.214;6.962;2022-07-03T06:22:59;7.43;;;2.83;;
42972;SDS011;28610;51.214;6.962;2022-07-03T06:25:45;7.70;;;2.80;;
42972;SDS011;28610;51.214;6.962;2022-07-03T06:28:32;7.88;;;2.75;;
42972;SDS011;28610;51.214;6.962;2022-07-03T06:31:17;8.63;;;2.90;;
42972;SDS011;28610;51.214;6.962;2022-07-03T06:34:02;7.07;;;2.78;;
42972;SDS011;28610;51.214;6.962;2022-07-03T06:36:48;7.20;;;2.85;;
42972;SDS011;28610;51.214;6.962;2022-07-03T06:39:34;8.95;;;3.03;;
42972;SDS011;28610;51.214;6.962;2022-07-03T06:42:19;8.25;;;2.92;;
42972;SDS011;28610;51.214;6.962;2022-07-03T06:45:06;9.65;;;3.13;;
42972;SDS011;28610;51.214;6.962;2022-07-03T06:47:52;7.07;;;2.80;;
42972;SDS011;28610;51.214;6.962;2022-07-03T06:50:38;5.82;;;2.65;;
42972;SDS011;28610;51.214;6.962;2022-07-03T06:53:23;6.63;;;2.72;;
42972;SDS011;28610;51.214;6.962;2022-07-03T06:56:08;5.35;;;2.88;;
42972;SDS011;28610;51.214;6.962;2022-07-03T06:58:54;9.00;;;3.13;;
42972;SDS011;28610;51.214;6.962;2022-07-03T07:01:41;8.30;;;3.00;;
42972;SDS011;28610;51.214;6.962;2022-07-03T07:04:26;8.68;;;3.25;;
42972;SDS011;28610;51.214;6.962;2022-07-03T07:07:12;8.18;;;3.17;;
42972;SDS011;28610;51.214;6.962;2022-07-03T07:09:57;8.75;;;2.72;;
42972;SDS011;28610;51.214;6.962;2022-07-03T07:12:43;8.13;;;2.80;;
42972;SDS011;28610;51.214;6.962;2022-07-03T07:15:28;6.85;;;2.70;;
42972;SDS011;28610;51.214;6.962;2022-07-03T07:18:15;7.63;;;2.40;;
42972;SDS011;28610;51.214;6.962;2022-07-03T07:21:00;7.78;;;2.72;;
42972;SDS011;28610;51.214;6.962;2022-07-03T07:23:46;6.80;;;2.50;;
42972;SDS011;28610;51.214;6.962;2022-07-03T07:26:31;6.55;;;2.60;;
42972;SDS011;28610;51.214;6.962;2022-07-03T07:29:17;6.35;;;2.63;;
42972;SDS011;28610;51.214;6.962;2022-07-03T07:32:03;11.70;;;3.22;;
42972;SDS011;28610;51.214;6.962;2022-07-03T07:34:50;6.15;;;2.38;;
42972;SDS011;28610;51.214;6.962;2022-07-03T07:37:36;6.20;;;2.40;;
42972;SDS011;28610;51.214;6.962;2022-07-03T07:40:21;6.13;;;2.65;;
42972;SDS011;28610;51.214;6.962;2022-07-03T07:43:07;8.05;;;2.50;;
42972;SDS011;28610;51.214;6.962;2022-07-03T07:45:52;7.13;;;2.67;;
42972;SDS011;28610;51.214;6.962;2022-07-03T07:48:38;5.57;;;2.80;;
42972;SDS011;28610;51.214;6.962;2022-07-03T07:51:24;8.27;;;3.13;;
42972;SDS011;28610;51.214;6.962;2022-07-03T07:54:10;7.70;;;3.03;;
42972;SDS011;28610;51.214;6.962;2022-07-03T07:56:56;7.35;;;2.72;;
42972;SDS011;28610;51.214;6.962;2022-07-03T07:59:41;7.90;;;3.17;;
42972;SDS011;28610;51.214;6.962;2022-07-03T08:02:26;5.07;;;2.75;;
42972;SDS011;28610;51.214;6.962;2022-07-03T08:05:30;10.13;;;2.85;;
42972;SDS011;28610;51.214;6.962;2022-07-03T08:08:23;10.95;;;2.90;;
42972;SDS011;28610;51.214;6.962;2022-07-03T08:11:08;5.90;;;2.75;;
42972;SDS011;28610;51.214;6.962;2022-07-03T08:13:53;6.80;;;2.80;;
42972;SDS011;28610;51.214;6.962;2022-07-03T08:16:39;8.82;;;2.88;;
42972;SDS011;28610;51.214;6.962;2022-07-03T08:19:25;6.97;;;2.67;;
42972;SDS011;28610;51.214;6.962;2022-07-03T08:22:11;6.50;;;3.03;;
42972;SDS011;28610;51.214;6.962;2022-07-03T08:24:58;6.80;;;2.80;;
42972;SDS011;28610;51.214;6.962;2022-07-03T08:27:43;7.95;;;3.20;;
42972;SDS011;28610;51.214;6.962;2022-07-03T08:30:29;7.40;;;2.70;;
42972;SDS011;28610;51.214;6.962;2022-07-03T08:33:14;8.00;;;2.60;;
42972;SDS011;28610;51.214;6.962;2022-07-03T08:35:59;5.53;;;2.70;;
42972;SDS011;28610;51.214;6.962;2022-07-03T08:38:45;7.20;;;2.90;;
42972;SDS011;28610;51.214;6.962;2022-07-03T08:41:32;5.78;;;2.30;;
42972;SDS011;28610;51.214;6.962;2022-07-03T08:44:20;8.45;;;2.40;;
42972;SDS011;28610;51.214;6.962;2022-07-03T08:47:09;7.00;;;2.53;;
42972;SDS011;28610;51.214;6.962;2022-07-03T08:49:56;6.78;;;2.80;;
42972;SDS011;28610;51.214;6.962;2022-07-03T08:52:43;5.05;;;2.38;;
42972;SDS011;28610;51.214;6.962;2022-07-03T08:55:29;8.60;;;2.22;;
42972;SDS011;28610;51.214;6.962;2022-07-03T08:58:16;5.82;;;2.50;;
42972;SDS011;28610;51.214;6.962;2022-07-03T09:01:02;6.88;;;2.70;;
42972;SDS011;28610;51.214;6.962;2022-07-03T09:03:48;4.60;;;2.40;;
42972;SDS011;28610;51.214;6.962;2022-07-03T09:06:35;7.80;;;2.60;;
42972;SDS011;28610;51.214;6.962;2022-07-03T09:09:21;5.55;;;2.28;;
42972;SDS011;28610;51.214;6.962;2022-07-03T09:12:06;6.60;;;2.30;;
42972;SDS011;28610;51.214;6.962;2022-07-03T09:14:54;7.47;;;2.75;;
42972;SDS011;28610;51.214;6.962;2022-07-03T09:17:39;5.85;;;2.20;;
42972;SDS011;28610;51.214;6.962;2022-07-03T09:20:40;7.15;;;2.40;;
42972;SDS011;28610;51.214;6.962;2022-07-03T09:23:27;9.52;;;2.40;;
42972;SDS011;28610;51.214;6.962;2022-07-03T09:26:21;6.88;;;2.75;;
42972;SDS011;28610;51.214;6.962;2022-07-03T09:29:11;5.88;;;2.70;;
42972;SDS011;28610;51.214;6.962;2022-07-03T09:31:59;6.53;;;2.50;;
42972;SDS011;28610;51.214;6.962;2022-07-03T09:34:44;6.95;;;2.70;;
42972;SDS011;28610;51.214;6.962;2022-07-03T09:37:30;5.40;;;2.13;;
42972;SDS011;28610;51.214;6.962;2022-07-03T09:40:17;4.97;;;2.13;;
42972;SDS011;28610;51.214;6.962;2022-07-03T09:43:04;4.68;;;1.90;;
42972;SDS011;28610;51.214;6.962;2022-07-03T09:45:53;4.15;;;2.20;;
42972;SDS011;28610;51.214;6.962;2022-07-03T09:48:41;5.25;;;2.13;;
42972;SDS011;28610;51.214;6.962;2022-07-03T09:51:26;6.78;;;2.10;;
42972;SDS011;28610;51.214;6.962;2022-07-03T09:54:12;4.63;;;2.08;;
42972;SDS011;28610;51.214;6.962;2022-07-03T09:57:00;4.80;;;2.10;;
42972;SDS011;28610;51.214;6.962;2022-07-03T09:59:45;5.03;;;2.25;;
42972;SDS011;28610;51.214;6.962;2022-07-03T10:02:31;4.20;;;2.17;;
42972;SDS011;28610;51.214;6.962;2022-07-03T10:05:18;5.10;;;2.35;;
42972;SDS011;28610;51.214;6.962;2022-07-03T10:08:05;4.30;;;2.20;;
42972;SDS011;28610;51.214;6.962;2022-07-03T10:10:52;6.10;;;2.00;;
42972;SDS011;28610;51.214;6.962;2022-07-03T10:13:37;4.05;;;2.10;;
42972;SDS011;28610;51.214;6.962;2022-07-03T10:16:24;7.28;;;2.13;;
42972;SDS011;28610;51.214;6.962;2022-07-03T10:19:12;7.03;;;2.63;;
42972;SDS011;28610;51.214;6.962;2022-07-03T10:22:01;5.03;;;2.00;;
42972;SDS011;28610;51.214;6.962;2022-07-03T10:24:51;4.40;;;2.08;;
42972;SDS011;28610;51.214;6.962;2022-07-03T10:27:37;5.95;;;2.00;;
42972;SDS011;28610;51.214;6.962;2022-07-03T10:30:24;6.43;;;1.75;;
42972;SDS011;28610;51.214;6.962;2022-07-03T10:33:10;6.55;;;2.20;;
42972;SDS011;28610;51.214;6.962;2022-07-03T10:35:55;6.38;;;2.38;;
42972;SDS011;28610;51.214;6.962;2022-07-03T10:38:45;6.00;;;2.00;;
42972;SDS011;28610;51.214;6.962;2022-07-03T10:41:34;5.43;;;2.25;;
42972;SDS011;28610;51.214;6.962;2022-07-03T10:45:03;6.35;;;2.20;;
42972;SDS011;28610;51.214;6.962;2022-07-03T10:47:50;6.45;;;2.40;;
42972;SDS011;28610;51.214;6.962;2022-07-03T10:50:36;7.07;;;2.20;;
42972;SDS011;28610;51.214;6.962;2022-07-03T10:53:22;8.48;;;2.45;;
42972;SDS011;28610;51.214;6.962;2022-07-03T10:56:09;6.80;;;2.20;;
42972;SDS011;28610;51.214;6.962;2022-07-03T10:58:55;6.20;;;2.58;;
42972;SDS011;28610;51.214;6.962;2022-07-03T11:01:41;5.90;;;2.30;;
42972;SDS011;28610;51.214;6.962;2022-07-03T11:04:27;5.40;;;2.20;;
42972;SDS011;28610;51.214;6.962;2022-07-03T11:08:03;6.43;;;2.55;;
42972;SDS011;28610;51.214;6.962;2022-07-03T11:10:49;3.55;;;2.08;;
42972;SDS011;28610;51.214;6.962;2022-07-03T11:20:06;4.38;;;2.13;;
42972;SDS011;28610;51.214;6.962;2022-07-03T11:23:12;5.47;;;2.60;;
42972;SDS011;28610;51.214;6.962;2022-07-03T11:26:19;4.35;;;1.90;;
42972;SDS011;28610;51.214;6.962;2022-07-03T11:29:06;5.63;;;2.45;;
42972;SDS011;28610;51.214;6.962;2022-07-03T11:31:53;5.95;;;2.42;;
42972;SDS011;28610;51.214;6.962;2022-07-03T11:34:41;6.53;;;2.13;;
42972;SDS011;28610;51.214;6.962;2022-07-03T11:37:27;6.38;;;2.10;;
42972;SDS011;28610;51.214;6.962;2022-07-03T11:40:15;4.68;;;2.33;;
42972;SDS011;28610;51.214;6.962;2022-07-03T11:43:03;5.97;;;2.22;;
42972;SDS011;28610;51.214;6.962;2022-07-03T11:45:49;8.15;;;2.03;;
42972;SDS011;28610;51.214;6.962;2022-07-03T11:48:36;6.60;;;2.00;;
42972;SDS011;28610;51.214;6.962;2022-07-03T11:51:22;10.48;;;1.88;;
42972;SDS011;28610;51.214;6.962;2022-07-03T11:54:07;5.18;;;2.30;;
42972;SDS011;28610;51.214;6.962;2022-07-03T11:56:53;2.90;;;1.70;;
42972;SDS011;28610;51.214;6.962;2022-07-03T11:59:38;5.18;;;1.70;;
42972;SDS011;28610;51.214;6.962;2022-07-03T12:02:23;5.78;;;2.08;;
42972;SDS011;28610;51.214;6.962;2022-07-03T12:05:14;4.60;;;1.98;;
42972;SDS011;28610;51.214;6.962;2022-07-03T12:08:03;6.85;;;2.05;;
42972;SDS011;28610;51.214;6.962;2022-07-03T12:10:49;2.88;;;1.70;;
42972;SDS011;28610;51.214;6.962;2022-07-03T12:13:34;6.38;;;2.25;;
42972;SDS011;28610;51.214;6.962;2022-07-03T12:16:21;5.32;;;1.80;;
42972;SDS011;28610;51.214;6.962;2022-07-03T12:19:17;6.80;;;1.98;;
42972;SDS011;28610;51.214;6.962;2022-07-03T12:22:04;3.13;;;1.90;;
42972;SDS011;28610;51.214;6.962;2022-07-03T12:24:56;3.63;;;1.98;;
42972;SDS011;28610;51.214;6.962;2022-07-03T12:27:44;5.60;;;2.20;;
42972;SDS011;28610;51.214;6.962;2022-07-03T12:30:30;4.60;;;1.73;;
42972;SDS011;28610;51.214;6.962;2022-07-03T12:33:16;4.90;;;1.75;;
42972;SDS011;28610;51.214;6.962;2022-07-03T12:36:05;4.22;;;1.80;;
42972;SDS011;28610;51.214;6.962;2022-07-03T12:38:54;1.80;;;1.42;;
42972;SDS011;28610;51.214;6.962;2022-07-03T12:41:40;4.97;;;1.65;;
42972;SDS011;28610;51.214;6.962;2022-07-03T12:44:26;3.20;;;1.70;;
42972;SDS011;28610;51.214;6.962;2022-07-03T12:47:11;5.75;;;1.70;;
42972;SDS011;28610;51.214;6.962;2022-07-03T12:50:02;3.92;;;1.42;;
42972;SDS011;28610;51.214;6.962;2022-07-03T12:52:49;3.20;;;1.80;;
42972;SDS011;28610;51.214;6.962;2022-07-03T12:55:37;5.28;;;1.70;;
42972;SDS011;28610;51.214;6.962;2022-07-03T12:58:29;5.25;;;1.83;;
42972;SDS011;28610;51.214;6.962;2022-07-03T13:01:33;4.32;;;1.80;;
42972;SDS011;28610;51.214;6.962;2022-07-03T13:04:29;4.65;;;1.88;;
42972;SDS011;28610;51.214;6.962;2022-07-03T13:07:15;3.67;;;1.65;;
42972;SDS011;28610;51.214;6.962;2022-07-03T13:10:01;1.80;;;1.48;;
42972;SDS011;28610;51.214;6.962;2022-07-03T13:12:50;2.67;;;1.45;;
42972;SDS011;28610;51.214;6.962;2022-07-03T13:15:37;3.35;;;1.70;;
42972;SDS011;28610;51.214;6.962;2022-07-03T13:18:22;5.13;;;1.60;;
42972;SDS011;28610;51.214;6.962;2022-07-03T13:21:08;3.42;;;1.55;;
42972;SDS011;28610;51.214;6.962;2022-07-03T13:23:53;3.85;;;1.70;;
42972;SDS011;28610;51.214;6.962;2022-07-03T13:26:40;4.25;;;1.80;;
42972;SDS011;28610;51.214;6.962;2022-07-03T13:29:27;3.95;;;1.50;;
42972;SDS011;28610;51.214;6.962;2022-07-03T13:32:13;4.78;;;1.70;;
42972;SDS011;28610;51.214;6.962;2022-07-03T13:34:58;3.08;;;1.60;;
42972;SDS011;28610;51.214;6.962;2022-07-03T13:37:44;4.00;;;1.70;;
42972;SDS011;28610;51.214;6.962;2022-07-03T13:40:29;2.50;;;1.60;;
42972;SDS011;28610;51.214;6.962;2022-07-03T13:43:15;4.70;;;1.80;;
42972;SDS011;28610;51.214;6.962;2022-07-03T13:46:01;2.83;;;1.65;;
42972;SDS011;28610;51.214;6.962;2022-07-03T13:48:47;2.92;;;1.58;;
42972;SDS011;28610;51.214;6.962;2022-07-03T13:51:33;4.53;;;1.52;;
42972;SDS011;28610;51.214;6.962;2022-07-03T13:54:18;4.32;;;1.60;;
42972;SDS011;28610;51.214;6.962;2022-07-03T13:57:04;4.10;;;1.65;;
42972;SDS011;28610;51.214;6.962;2022-07-03T13:59:49;4.82;;;1.40;;
42972;SDS011;28610;51.214;6.962;2022-07-03T14:02:36;4.00;;;1.50;;
42972;SDS011;28610;51.214;6.962;2022-07-03T14:05:22;4.78;;;1.45;;
42972;SDS011;28610;51.214;6.962;2022-07-03T14:08:08;1.85;;;1.40;;
42972;SDS011;28610;51.214;6.962;2022-07-03T14:10:54;3.38;;;1.58;;
42972;SDS011;28610;51.214;6.962;2022-07-03T14:13:39;3.67;;;1.80;;
42972;SDS011;28610;51.214;6.962;2022-07-03T14:16:24;5.20;;;1.60;;
42972;SDS011;28610;51.214;6.962;2022-07-03T14:19:11;2.35;;;1.60;;
42972;SDS011;28610;51.214;6.962;2022-07-03T14:21:57;3.35;;;1.50;;
42972;SDS011;28610;51.214;6.962;2022-07-03T14:24:42;3.25;;;1.40;;
42972;SDS011;28610;51.214;6.962;2022-07-03T14:27:27;1.67;;;1.35;;
42972;SDS011;28610;51.214;6.962;2022-07-03T14:30:30;3.45;;;1.40;;
42972;SDS011;28610;51.214;6.962;2022-07-03T14:33:34;5.53;;;1.50;;
42972;SDS011;28610;51.214;6.962;2022-07-03T14:36:20;3.17;;;1.45;;
42972;SDS011;28610;51.214;6.962;2022-07-03T14:39:06;2.15;;;1.60;;
42972;SDS011;28610;51.214;6.962;2022-07-03T14:41:51;7.88;;;3.20;;
42972;SDS011;28610;51.214;6.962;2022-07-03T14:44:37;6.13;;;1.90;;
42972;SDS011;28610;51.214;6.962;2022-07-03T14:47:22;9.63;;;3.00;;
42972;SDS011;28610;51.214;6.962;2022-07-03T14:50:08;3.90;;;1.55;;
42972;SDS011;28610;51.214;6.962;2022-07-03T14:52:55;3.38;;;1.77;;
42972;SDS011;28610;51.214;6.962;2022-07-03T14:55:40;3.50;;;1.70;;
42972;SDS011;28610;51.214;6.962;2022-07-03T14:58:26;4.18;;;1.55;;
42972;SDS011;28610;51.214;6.962;2022-07-03T15:01:12;3.90;;;1.52;;
42972;SDS011;28610;51.214;6.962;2022-07-03T15:04:01;2.13;;;1.38;;
42972;SDS011;28610;51.214;6.962;2022-07-03T15:06:48;2.53;;;1.58;;
42972;SDS011;28610;51.214;6.962;2022-07-03T15:09:36;4.75;;;1.60;;
42972;SDS011;28610;51.214;6.962;2022-07-03T15:12:22;2.28;;;1.50;;
42972;SDS011;28610;51.214;6.962;2022-07-03T15:15:13;4.53;;;1.80;;
42972;SDS011;28610;51.214;6.962;2022-07-03T15:18:00;3.28;;;1.80;;
42972;SDS011;28610;51.214;6.962;2022-07-03T15:20:46;8.65;;;4.22;;
42972;SDS011;28610;51.214;6.962;2022-07-03T15:23:34;5.28;;;2.58;;
42972;SDS011;28610;51.214;6.962;2022-07-03T15:26:21;4.97;;;1.58;;
42972;SDS011;28610;51.214;6.962;2022-07-03T15:29:08;2.75;;;1.52;;
42972;SDS011;28610;51.214;6.962;2022-07-03T15:31:55;5.07;;;1.50;;
42972;SDS011;28610;51.214;6.962;2022-07-03T15:34:45;4.15;;;1.70;;
42972;SDS011;28610;51.214;6.962;2022-07-03T15:37:34;4.47;;;1.70;;
42972;SDS011;28610;51.214;6.962;2022-07-03T15:40:27;6.28;;;1.85;;
42972;SDS011;28610;51.214;6.962;2022-07-03T15:43:23;4.50;;;2.20;;
42972;SDS011;28610;51.214;6.962;2022-07-03T15:46:22;2.88;;;1.60;;
42972;SDS011;28610;51.214;6.962;2022-07-03T15:49:24;5.03;;;1.33;;
42972;SDS011;28610;51.214;6.962;2022-07-03T15:52:16;4.00;;;1.60;;
42972;SDS011;28610;51.214;6.962;2022-07-03T15:55:03;8.43;;;1.70;;
42972;SDS011;28610;51.214;6.962;2022-07-03T15:57:50;5.70;;;1.40;;
42972;SDS011;28610;51.214;6.962;2022-07-03T16:00:40;2.42;;;1.50;;
42972;SDS011;28610;51.214;6.962;2022-07-03T16:03:49;4.40;;;1.80;;
42972;SDS011;28610;51.214;6.962;2022-07-03T16:06:40;3.80;;;1.58;;
42972;SDS011;28610;51.214;6.962;2022-07-03T16:09:26;4.15;;;1.75;;
42972;SDS011;28610;51.214;6.962;2022-07-03T16:12:12;2.00;;;1.38;;
42972;SDS011;28610;51.214;6.962;2022-07-03T16:15:01;4.10;;;1.40;;
42972;SDS011;28610;51.214;6.962;2022-07-03T16:17:50;4.03;;;1.42;;
42972;SDS011;28610;51.214;6.962;2022-07-03T16:20:41;5.57;;;1.67;;
42972;SDS011;28610;51.214;6.962;2022-07-03T16:23:27;3.58;;;1.60;;
42972;SDS011;28610;51.214;6.962;2022-07-03T16:26:14;3.80;;;1.50;;
42972;SDS011;28610;51.214;6.962;2022-07-03T16:29:00;4.55;;;1.60;;
42972;SDS011;28610;51.214;6.962;2022-07-03T16:31:48;2.67;;;1.40;;
42972;SDS011;28610;51.214;6.962;2022-07-03T16:34:37;4.55;;;1.52;;
42972;SDS011;28610;51.214;6.962;2022-07-03T16:37:27;6.57;;;1.60;;
42972;SDS011;28610;51.214;6.962;2022-07-03T16:40:19;2.95;;;1.50;;
42972;SDS011;28610;51.214;6.962;2022-07-03T16:43:07;3.20;;;1.42;;
42972;SDS011;28610;51.214;6.962;2022-07-03T16:45:56;2.78;;;1.52;;
42972;SDS011;28610;51.214;6.962;2022-07-03T16:48:43;2.83;;;1.40;;
42972;SDS011;28610;51.214;6.962;2022-07-03T16:51:33;3.92;;;1.45;;
42972;SDS011;28610;51.214;6.962;2022-07-03T16:54:19;2.40;;;1.40;;
42972;SDS011;28610;51.214;6.962;2022-07-03T16:57:06;1.90;;;1.45;;
42972;SDS011;28610;51.214;6.962;2022-07-03T16:59:52;2.80;;;1.50;;